sensor_id;sensor_type;location;lat;lon;timestamp;pressure;altitude;pressure_sealevel;temperature;humidity
60059;BME280;45932;50.658;3.022;2022-08-21T03:20:56;101352.25;;;19.98;55.42
60059;BME280;45932;50.658;3.022;2022-08-21T03:23:21;101294.34;;;19.61;55.29
60059;BME280;45932;50.658;3.022;2022-08-21T03:25:47;101266.22;;;19.44;55.22
60059;BME280;45932;50.658;3.022;2022-08-21T03:28:16;101150.31;;;18.76;55.43
60059;BME280;45932;50.658;3.022;2022-08-21T03:30:46;101313.13;;;19.58;55.21
60059;BME280;45932;50.658;3.022;2022-08-21T03:33:45;101401.63;;;20.21;55.78
60059;BME280;45932;50.658;3.022;2022-08-21T03:39:24;101152.03;;;18.77;56.12
60059;BME280;45932;50.658;3.022;2022-08-21T03:41:49;101155.94;;;18.64;55.75
60059;BME280;45932;50.658;3.022;2022-08-21T03:44:39;101189.09;;;18.93;55.83
60059;BME280;45932;50.658;3.022;2022-08-21T03:47:05;101290.22;;;19.47;55.97
60059;BME280;45932;50.658;3.022;2022-08-21T03:49:38;101220.97;;;19.02;55.83
60059;BME280;45932;50.658;3.022;2022-08-21T03:52:09;101198.47;;;18.73;55.46
60059;BME280;45932;50.658;3.022;2022-08-21T03:54:37;101254.44;;;19.17;55.75
60059;BME280;45932;50.658;3.022;2022-08-21T03:57:04;101216.75;;;18.92;55.37
60059;BME280;45932;50.658;3.022;2022-08-21T03:59:37;101134.19;;;18.43;55.72
60059;BME280;45932;50.658;3.022;2022-08-21T04:02:18;101199.88;;;18.90;55.90
60059;BME280;45932;50.658;3.022;2022-08-21T04:04:57;101415.44;;;20.07;55.92
60059;BME280;45932;50.658;3.022;2022-08-21T04:07:28;101260.66;;;19.17;55.76
60059;BME280;45932;50.658;3.022;2022-08-21T04:10:11;101279.22;;;19.24;55.74
60059;BME280;45932;50.658;3.022;2022-08-21T04:12:45;101278.28;;;19.26;55.89
60059;BME280;45932;50.658;3.022;2022-08-21T04:15:13;101104.38;;;18.24;55.96
60059;BME280;45932;50.658;3.022;2022-08-21T04:17:48;101205.63;;;18.72;55.69
60059;BME280;45932;50.658;3.022;2022-08-21T04:20:22;101260.13;;;19.04;55.82
60059;BME280;45932;50.658;3.022;2022-08-21T04:22:51;101184.50;;;18.62;55.82
60059;BME280;45932;50.658;3.022;2022-08-21T04:25:20;101337.69;;;19.39;55.68
60059;BME280;45932;50.658;3.022;2022-08-21T04:27:53;101211.13;;;18.65;55.73
60059;BME280;45932;50.658;3.022;2022-08-21T04:30:23;101178.66;;;18.46;55.54
60059;BME280;45932;50.658;3.022;2022-08-21T04:32:50;101285.84;;;19.09;55.77
60059;BME280;45932;50.658;3.022;2022-08-21T04:35:19;101272.72;;;18.99;56.05
60059;BME280;45932;50.658;3.022;2022-08-21T04:37:47;101149.66;;;18.29;55.80
60059;BME280;45932;50.658;3.022;2022-08-21T04:40:14;101310.34;;;19.28;56.03
60059;BME280;45932;50.658;3.022;2022-08-21T04:42:49;101189.28;;;18.47;56.08
60059;BME280;45932;50.658;3.022;2022-08-21T04:45:28;101259.50;;;18.93;56.07
60059;BME280;45932;50.658;3.022;2022-08-21T04:47:56;101279.84;;;18.99;55.82
60059;BME280;45932;50.658;3.022;2022-08-21T04:53:50;101342.34;;;19.31;56.12
60059;BME280;45932;50.658;3.022;2022-08-21T04:56:31;101395.06;;;19.63;55.73
60059;BME280;45932;50.658;3.022;2022-08-21T04:59:02;101315.16;;;19.13;55.82
60059;BME280;45932;50.658;3.022;2022-08-21T05:01:34;101164.03;;;18.23;56.03
60059;BME280;45932;50.658;3.022;2022-08-21T05:04:09;101266.84;;;18.82;56.17
60059;BME280;45932;50.658;3.022;2022-08-21T05:06:51;101260.69;;;18.78;56.12
60059;BME280;45932;50.658;3.022;2022-08-21T05:09:20;101441.31;;;19.70;56.36
60059;BME280;45932;50.658;3.022;2022-08-21T05:11:47;101436.19;;;19.61;56.15
60059;BME280;45932;50.658;3.022;2022-08-21T05:14:14;101259.22;;;18.66;56.42
60059;BME280;45932;50.658;3.022;2022-08-21T05:16:43;101235.44;;;18.54;56.36
60059;BME280;45932;50.658;3.022;2022-08-21T05:19:09;101322.31;;;19.11;56.48
60059;BME280;45932;50.658;3.022;2022-08-21T05:21:42;101270.28;;;18.87;56.65
60059;BME280;45932;50.658;3.022;2022-08-21T05:24:16;101328.38;;;19.19;56.71
60059;BME280;45932;50.658;3.022;2022-08-21T05:26:43;101323.13;;;19.15;56.32
60059;BME280;45932;50.658;3.022;2022-08-21T05:29:08;101307.50;;;18.98;56.50
60059;BME280;45932;50.658;3.022;2022-08-21T05:31:34;101317.41;;;18.93;56.45
60059;BME280;45932;50.658;3.022;2022-08-21T05:33:59;101210.94;;;18.35;56.57
60059;BME280;45932;50.658;3.022;2022-08-21T05:36:34;101353.09;;;19.29;56.42
60059;BME280;45932;50.658;3.022;2022-08-21T05:39:12;101271.44;;;18.77;56.76
60059;BME280;45932;50.658;3.022;2022-08-21T05:41:38;101147.44;;;18.08;56.88
60059;BME280;45932;50.658;3.022;2022-08-21T05:44:29;101384.91;;;19.42;56.59
60059;BME280;45932;50.658;3.022;2022-08-21T05:47:07;101123.75;;;17.95;56.92
60059;BME280;45932;50.658;3.022;2022-08-21T05:49:33;101307.19;;;19.12;57.44
60059;BME280;45932;50.658;3.022;2022-08-21T05:52:04;101254.34;;;18.84;57.26
60059;BME280;45932;50.658;3.022;2022-08-21T05:54:35;101315.34;;;19.06;57.16
60059;BME280;45932;50.658;3.022;2022-08-21T05:57:07;101350.22;;;19.37;56.54
60059;BME280;45932;50.658;3.022;2022-08-21T05:59:34;101193.72;;;18.48;56.85
60059;BME280;45932;50.658;3.022;2022-08-21T06:02:03;101387.00;;;19.65;57.07
60059;BME280;45932;50.658;3.022;2022-08-21T06:04:37;101358.72;;;19.55;57.09
60059;BME280;45932;50.658;3.022;2022-08-21T06:07:06;101144.38;;;18.26;57.44
60059;BME280;45932;50.658;3.022;2022-08-21T06:09:35;101171.59;;;18.42;56.88
60059;BME280;45932;50.658;3.022;2022-08-21T06:12:08;101327.00;;;19.39;57.16
60059;BME280;45932;50.658;3.022;2022-08-21T06:14:35;101109.13;;;18.11;56.98
60059;BME280;45932;50.658;3.022;2022-08-21T06:17:06;101291.94;;;19.15;57.16
60059;BME280;45932;50.658;3.022;2022-08-21T06:19:42;101137.22;;;18.28;56.61
60059;BME280;45932;50.658;3.022;2022-08-21T06:22:08;101133.66;;;18.29;56.90
60059;BME280;45932;50.658;3.022;2022-08-21T06:24:36;101200.06;;;18.80;57.58
60059;BME280;45932;50.658;3.022;2022-08-21T06:27:07;101255.25;;;19.20;57.73
60059;BME280;45932;50.658;3.022;2022-08-21T06:29:43;101166.56;;;18.67;57.94
60059;BME280;45932;50.658;3.022;2022-08-21T06:32:12;101158.50;;;18.68;57.80
60059;BME280;45932;50.658;3.022;2022-08-21T06:34:45;101251.63;;;19.23;57.66
60059;BME280;45932;50.658;3.022;2022-08-21T06:37:10;101245.25;;;19.29;57.73
60059;BME280;45932;50.658;3.022;2022-08-21T06:39:36;101244.81;;;19.10;57.27
60059;BME280;45932;50.658;3.022;2022-08-21T06:42:02;101180.38;;;18.84;57.53
60059;BME280;45932;50.658;3.022;2022-08-21T06:44:30;101275.09;;;19.46;58.03
60059;BME280;45932;50.658;3.022;2022-08-21T06:46:56;101247.53;;;19.43;57.93
60059;BME280;45932;50.658;3.022;2022-08-21T06:49:29;101132.47;;;18.77;58.18
60059;BME280;45932;50.658;3.022;2022-08-21T06:52:09;101287.63;;;19.79;58.38
60059;BME280;45932;50.658;3.022;2022-08-21T06:54:37;101210.97;;;19.43;58.36
60059;BME280;45932;50.658;3.022;2022-08-21T06:57:03;101173.44;;;19.13;58.44
60059;BME280;45932;50.658;3.022;2022-08-21T06:59:32;101246.63;;;19.77;58.64
60059;BME280;45932;50.658;3.022;2022-08-21T07:02:05;101223.84;;;19.62;58.62
60059;BME280;45932;50.658;3.022;2022-08-21T07:04:37;101102.69;;;18.91;58.55
60059;BME280;45932;50.658;3.022;2022-08-21T07:07:03;101199.66;;;19.65;59.05
60059;BME280;45932;50.658;3.022;2022-08-21T07:09:28;101111.13;;;19.10;58.78
60059;BME280;45932;50.658;3.022;2022-08-21T07:11:56;101355.00;;;20.59;58.72
60059;BME280;45932;50.658;3.022;2022-08-21T07:14:24;101133.16;;;19.19;58.46
60059;BME280;45932;50.658;3.022;2022-08-21T07:17:00;101113.69;;;19.14;58.51
60059;BME280;45932;50.658;3.022;2022-08-21T07:19:25;101241.72;;;19.93;58.66
60059;BME280;45932;50.658;3.022;2022-08-21T07:21:54;101324.66;;;20.57;58.84
60059;BME280;45932;50.658;3.022;2022-08-21T07:24:29;101329.16;;;20.57;58.85
60059;BME280;45932;50.658;3.022;2022-08-21T07:26:57;101134.56;;;19.33;58.81
60059;BME280;45932;50.658;3.022;2022-08-21T07:29:22;101206.06;;;19.92;58.77
60059;BME280;45932;50.658;3.022;2022-08-21T07:31:50;101158.41;;;19.72;58.68
60059;BME280;45932;50.658;3.022;2022-08-21T07:34:18;101293.28;;;20.61;59.14
60059;BME280;45932;50.658;3.022;2022-08-21T07:36:51;101215.09;;;20.18;58.68
60059;BME280;45932;50.658;3.022;2022-08-21T07:39:40;101260.41;;;20.56;59.14
60059;BME280;45932;50.658;3.022;2022-08-21T07:42:22;101057.66;;;19.41;59.34
60059;BME280;45932;50.658;3.022;2022-08-21T07:44:50;101211.41;;;20.22;59.18
60059;BME280;45932;50.658;3.022;2022-08-21T07:47:20;101215.06;;;20.48;59.12
60059;BME280;45932;50.658;3.022;2022-08-21T07:49:53;101295.78;;;20.97;59.41
60059;BME280;45932;50.658;3.022;2022-08-21T07:52:26;101293.31;;;20.89;58.82
60059;BME280;45932;50.658;3.022;2022-08-21T07:55:24;101279.81;;;20.92;59.00
60059;BME280;45932;50.658;3.022;2022-08-21T07:58:04;101207.81;;;20.52;59.49
60059;BME280;45932;50.658;3.022;2022-08-21T08:00:38;101067.59;;;19.66;59.10
60059;BME280;45932;50.658;3.022;2022-08-21T08:03:14;101087.47;;;19.89;59.12
60059;BME280;45932;50.658;3.022;2022-08-21T08:05:49;101211.25;;;20.57;59.29
60059;BME280;45932;50.658;3.022;2022-08-21T08:08:20;101175.69;;;20.50;59.47
60059;BME280;45932;50.658;3.022;2022-08-21T08:10:57;101069.31;;;19.68;58.74
60059;BME280;45932;50.658;3.022;2022-08-21T08:13:45;101215.41;;;20.66;59.60
60059;BME280;45932;50.658;3.022;2022-08-21T08:16:36;101140.50;;;20.34;59.29
60059;BME280;45932;50.658;3.022;2022-08-21T08:19:02;101285.44;;;21.11;59.16
60059;BME280;45932;50.658;3.022;2022-08-21T08:21:39;101072.06;;;19.97;58.78
60059;BME280;45932;50.658;3.022;2022-08-21T08:24:22;101136.13;;;20.31;59.06
60059;BME280;45932;50.658;3.022;2022-08-21T08:26:53;101283.50;;;21.17;58.75
60059;BME280;45932;50.658;3.022;2022-08-21T08:29:24;101062.19;;;19.97;58.71
60059;BME280;45932;50.658;3.022;2022-08-21T08:32:08;101227.19;;;21.15;58.74
60059;BME280;45932;50.658;3.022;2022-08-21T08:34:48;101275.38;;;21.45;58.36
60059;BME280;45932;50.658;3.022;2022-08-21T08:37:54;101060.00;;;20.37;58.92
60059;BME280;45932;50.658;3.022;2022-08-21T08:43:55;101224.50;;;21.17;57.39
60059;BME280;45932;50.658;3.022;2022-08-21T08:50:45;101091.13;;;20.68;57.63
60059;BME280;45932;50.658;3.022;2022-08-21T08:53:47;101063.72;;;20.60;57.97
60059;BME280;45932;50.658;3.022;2022-08-21T08:56:21;101153.06;;;21.13;58.23
60059;BME280;45932;50.658;3.022;2022-08-21T08:58:52;101309.44;;;22.20;58.12
60059;BME280;45932;50.658;3.022;2022-08-21T09:01:26;101130.06;;;21.07;57.15
60059;BME280;45932;50.658;3.022;2022-08-21T09:03:51;101212.25;;;21.60;58.06
60059;BME280;45932;50.658;3.022;2022-08-21T09:06:31;101225.13;;;21.75;58.33
60059;BME280;45932;50.658;3.022;2022-08-21T09:11:59;101334.00;;;22.33;56.80
60059;BME280;45932;50.658;3.022;2022-08-21T09:18:18;101365.72;;;22.49;56.04
60059;BME280;45932;50.658;3.022;2022-08-21T09:24:49;101339.06;;;22.66;56.85
60059;BME280;45932;50.658;3.022;2022-08-21T09:28:01;101109.00;;;21.20;55.94
60059;BME280;45932;50.658;3.022;2022-08-21T09:31:21;101360.41;;;22.93;55.92
60059;BME280;45932;50.658;3.022;2022-08-21T09:58:29;101235.69;;;22.74;53.32
60059;BME280;45932;50.658;3.022;2022-08-21T10:04:43;101291.97;;;23.00;52.95
60059;BME280;45932;50.658;3.022;2022-08-21T10:07:43;101127.13;;;22.32;53.69
60059;BME280;45932;50.658;3.022;2022-08-21T10:10:26;101157.22;;;22.42;52.54
60059;BME280;45932;50.658;3.022;2022-08-21T10:13:24;101145.19;;;22.73;54.28
60059;BME280;45932;50.658;3.022;2022-08-21T11:53:13;101503.69;;;25.54;47.43
60059;BME280;45932;50.658;3.022;2022-08-21T11:56:03;101279.13;;;24.12;47.83
60059;BME280;45932;50.658;3.022;2022-08-21T12:01:50;101265.31;;;24.20;49.75
60059;BME280;45932;50.658;3.022;2022-08-21T12:04:47;101252.84;;;24.17;49.44
60059;BME280;45932;50.658;3.022;2022-08-21T12:18:04;101238.56;;;24.15;49.49
60059;BME280;45932;50.658;3.022;2022-08-21T12:24:18;101258.69;;;24.27;48.89
60059;BME280;45932;50.658;3.022;2022-08-21T12:36:38;101499.66;;;25.63;47.99
60059;BME280;45932;50.658;3.022;2022-08-21T12:48:48;101267.19;;;24.56;49.27
60059;BME280;45932;50.658;3.022;2022-08-21T12:52:24;101215.59;;;24.44;51.10
60059;BME280;45932;50.658;3.022;2022-08-21T12:55:25;101208.41;;;24.26;49.49
60059;BME280;45932;50.658;3.022;2022-08-21T12:58:19;101237.69;;;24.34;50.07
60059;BME280;45932;50.658;3.022;2022-08-21T13:00:56;101382.31;;;25.13;48.17
60059;BME280;45932;50.658;3.022;2022-08-21T13:03:27;101384.22;;;25.10;48.42
60059;BME280;45932;50.658;3.022;2022-08-21T13:06:12;101214.53;;;24.29;49.88
60059;BME280;45932;50.658;3.022;2022-08-21T13:08:56;101232.28;;;24.53;50.39
60059;BME280;45932;50.658;3.022;2022-08-21T13:11:45;101323.25;;;24.87;49.69
60059;BME280;45932;50.658;3.022;2022-08-21T13:14:35;101284.19;;;24.77;50.08
60059;BME280;45932;50.658;3.022;2022-08-21T13:17:37;101381.53;;;25.47;50.64
60059;BME280;45932;50.658;3.022;2022-08-21T13:21:19;101313.41;;;24.86;49.46
60059;BME280;45932;50.658;3.022;2022-08-21T13:26:41;101176.91;;;24.26;49.83
60059;BME280;45932;50.658;3.022;2022-08-21T13:29:18;101161.34;;;24.33;50.91
60059;BME280;45932;50.658;3.022;2022-08-21T13:32:05;101282.66;;;25.08;51.39
60059;BME280;45932;50.658;3.022;2022-08-21T13:34:56;101169.50;;;24.32;50.68
60059;BME280;45932;50.658;3.022;2022-08-21T13:37:28;101289.91;;;25.07;50.90
60059;BME280;45932;50.658;3.022;2022-08-21T13:43:47;101182.00;;;24.33;49.95
60059;BME280;45932;50.658;3.022;2022-08-21T13:46:24;101171.66;;;24.42;50.70
60059;BME280;45932;50.658;3.022;2022-08-21T13:48:53;101157.19;;;24.07;48.75
60059;BME280;45932;50.658;3.022;2022-08-21T13:51:28;101137.72;;;24.19;50.72
60059;BME280;45932;50.658;3.022;2022-08-21T13:54:23;101154.63;;;24.23;49.96
60059;BME280;45932;50.658;3.022;2022-08-21T13:57:35;101199.50;;;24.24;47.79
60059;BME280;45932;50.658;3.022;2022-08-21T14:03:23;101271.06;;;25.06;50.58
60059;BME280;45932;50.658;3.022;2022-08-21T14:09:49;101141.66;;;24.31;50.45
60059;BME280;45932;50.658;3.022;2022-08-21T14:12:38;101103.66;;;24.18;51.19
60059;BME280;45932;50.658;3.022;2022-08-21T14:15:35;101152.22;;;24.53;50.96
60059;BME280;45932;50.658;3.022;2022-08-21T14:18:30;101268.88;;;25.32;51.37
60059;BME280;45932;50.658;3.022;2022-08-21T14:31:53;101285.13;;;25.13;47.78
60059;BME280;45932;50.658;3.022;2022-08-21T14:41:11;101416.88;;;25.97;47.20
60059;BME280;45932;50.658;3.022;2022-08-21T14:44:26;101147.47;;;24.41;48.98
60059;BME280;45932;50.658;3.022;2022-08-21T14:57:14;101299.50;;;25.13;47.10
60059;BME280;45932;50.658;3.022;2022-08-21T15:06:35;101295.84;;;25.14;47.77
60059;BME280;45932;50.658;3.022;2022-08-21T15:16:12;101327.72;;;25.25;47.05
60059;BME280;45932;50.658;3.022;2022-08-21T18:16:07;101046.13;;;24.89;51.07
60059;BME280;45932;50.658;3.022;2022-08-21T18:19:03;101066.44;;;24.97;51.56
60059;BME280;45932;50.658;3.022;2022-08-21T18:21:49;101049.78;;;24.88;51.53
60059;BME280;45932;50.658;3.022;2022-08-21T18:27:21;101176.13;;;25.50;51.59
60059;BME280;45932;50.658;3.022;2022-08-21T18:30:13;101047.09;;;24.71;51.57
60059;BME280;45932;50.658;3.022;2022-08-21T18:32:51;101011.22;;;24.51;51.53
60059;BME280;45932;50.658;3.022;2022-08-21T18:38:28;101228.00;;;25.73;51.44
60059;BME280;45932;50.658;3.022;2022-08-21T18:41:22;101049.31;;;24.80;51.37
60059;BME280;45932;50.658;3.022;2022-08-21T19:15:00;101092.75;;;24.56;51.91
60059;BME280;45932;50.658;3.022;2022-08-21T19:37:56;101091.56;;;24.44;52.05
60059;BME280;45932;50.658;3.022;2022-08-21T20:05:05;101111.28;;;24.27;52.38
